createdAt,value
2017-07-10T00:00:21.968Z,1006.9
2017-07-10T00:01:02.538Z,1006.89
2017-07-10T00:01:43.130Z,1006.89
2017-07-10T00:02:23.711Z,1006.87
2017-07-10T00:03:04.279Z,1006.87
2017-07-10T00:03:44.863Z,1006.88
2017-07-10T00:04:25.427Z,1006.86
2017-07-10T00:05:06.002Z,1006.87
2017-07-10T00:05:46.592Z,1006.82
2017-07-10T00:06:27.168Z,1006.8
2017-07-10T00:07:07.734Z,1006.83
2017-07-10T00:07:48.318Z,1006.79
2017-07-10T00:08:28.890Z,1006.77
2017-07-10T00:09:09.438Z,1006.76
2017-07-10T00:09:50.021Z,1006.76
2017-07-10T00:10:30.601Z,1006.73
2017-07-10T00:11:11.175Z,1006.72
2017-07-10T00:11:51.767Z,1006.73
2017-07-10T00:12:32.383Z,1006.72
2017-07-10T00:13:12.970Z,1006.67
2017-07-10T00:13:53.557Z,1006.7
2017-07-10T00:14:34.139Z,1006.7
2017-07-10T00:15:14.714Z,1006.7
2017-07-10T00:15:55.294Z,1006.7
2017-07-10T00:16:35.873Z,1006.69
2017-07-10T00:17:16.440Z,1006.67
2017-07-10T00:17:57.005Z,1006.7
2017-07-10T00:18:37.576Z,1006.67
2017-07-10T00:19:18.163Z,1006.66
2017-07-10T00:19:58.733Z,1006.68
2017-07-10T00:20:39.331Z,1006.7
2017-07-10T00:21:19.906Z,1006.67
2017-07-10T00:22:00.536Z,1006.67
2017-07-10T00:22:41.144Z,1006.64
2017-07-10T00:23:21.751Z,1006.61
2017-07-10T00:24:02.356Z,1006.6
2017-07-10T00:24:42.905Z,1006.62
2017-07-10T00:25:23.473Z,1006.58
2017-07-10T00:26:04.060Z,1006.57
2017-07-10T00:26:44.687Z,1006.57
2017-07-10T00:27:25.255Z,1006.51
2017-07-10T00:28:05.836Z,1006.53
2017-07-10T00:28:46.397Z,1006.52
2017-07-10T00:29:26.985Z,1006.53
2017-07-10T00:30:07.560Z,1006.49
2017-07-10T00:30:48.241Z,1006.47
2017-07-10T00:31:28.847Z,1006.51
2017-07-10T00:32:09.412Z,1006.49
2017-07-10T00:32:49.994Z,1006.5
2017-07-10T00:33:37.431Z,1006.52
2017-07-10T00:34:17.992Z,1006.53
2017-07-10T00:34:58.588Z,1006.54
2017-07-10T00:35:39.182Z,1006.52
2017-07-10T00:36:19.734Z,1006.5
2017-07-10T00:37:00.327Z,1006.51
2017-07-10T00:37:40.924Z,1006.54
2017-07-10T00:38:21.518Z,1006.49
2017-07-10T00:39:02.097Z,1006.45
2017-07-10T00:39:42.687Z,1006.43
2017-07-10T00:40:23.265Z,1006.42
2017-07-10T00:41:03.867Z,1006.48
2017-07-10T00:41:44.489Z,1006.44
2017-07-10T00:42:25.062Z,1006.42
2017-07-10T00:43:05.653Z,1006.41
2017-07-10T00:43:46.237Z,1006.41
2017-07-10T00:44:26.828Z,1006.39
2017-07-10T00:45:07.403Z,1006.39
2017-07-10T00:45:47.982Z,1006.39
2017-07-10T00:46:28.563Z,1006.38
2017-07-10T00:47:09.140Z,1006.36
2017-07-10T00:47:49.751Z,1006.33
2017-07-10T00:48:30.456Z,1006.35
2017-07-10T00:49:10.982Z,1006.34
2017-07-10T00:49:51.550Z,1006.31
2017-07-10T00:50:32.120Z,1006.36
2017-07-10T00:51:12.734Z,1006.37
2017-07-10T00:51:53.363Z,1006.32
2017-07-10T00:52:33.964Z,1006.36
2017-07-10T00:53:14.539Z,1006.34
2017-07-10T00:53:55.143Z,1006.33
2017-07-10T00:54:35.726Z,1006.35
2017-07-10T00:55:16.314Z,1006.33
2017-07-10T00:55:56.882Z,1006.35
2017-07-10T00:56:37.461Z,1006.28
2017-07-10T00:57:18.034Z,1006.31
2017-07-10T00:57:58.591Z,1006.3
2017-07-10T00:58:39.239Z,1006.23
2017-07-10T00:59:19.822Z,1006.31
2017-07-10T01:00:00.379Z,1006.29
2017-07-10T01:00:40.950Z,1006.29
2017-07-10T01:01:21.536Z,1006.3
2017-07-10T01:02:02.128Z,1006.29
2017-07-10T01:02:42.698Z,1006.26
2017-07-10T01:03:23.269Z,1006.32
2017-07-10T01:04:03.855Z,1006.28
2017-07-10T01:04:44.430Z,1006.28
2017-07-10T01:05:25.048Z,1006.23
2017-07-10T01:06:05.601Z,1006.22
2017-07-10T01:06:46.181Z,1006.24
2017-07-10T01:07:26.766Z,1006.2
2017-07-10T01:08:07.335Z,1006.21
2017-07-10T01:08:47.915Z,1006.18
2017-07-10T01:09:28.489Z,1006.2
2017-07-10T01:10:09.084Z,1006.18
2017-07-10T01:10:49.643Z,1006.17
2017-07-10T01:11:30.273Z,1006.13
2017-07-10T01:12:10.854Z,1006.11
2017-07-10T01:12:51.456Z,1006.11
2017-07-10T01:13:32.038Z,1006.12
2017-07-10T01:14:12.665Z,1006.13
2017-07-10T01:14:53.242Z,1006.11
2017-07-10T01:15:33.831Z,1006.13
2017-07-10T01:16:14.414Z,1006.16
2017-07-10T01:16:55.019Z,1006.16
2017-07-10T01:17:35.616Z,1006.13
2017-07-10T01:18:16.200Z,1006.13
2017-07-10T01:18:56.851Z,1006.17
2017-07-10T01:19:37.447Z,1006.12
2017-07-10T01:20:18.095Z,1006.14
2017-07-10T01:20:58.771Z,1006.14
2017-07-10T01:21:39.414Z,1006.12
2017-07-10T01:22:20.029Z,1006.1
2017-07-10T01:23:00.618Z,1006.11
2017-07-10T01:23:41.218Z,1006.09
2017-07-10T01:24:21.799Z,1006.13
2017-07-10T01:25:02.365Z,1006.1
2017-07-10T01:25:42.968Z,1006.09
2017-07-10T01:26:23.716Z,1006.09
2017-07-10T01:27:04.249Z,1006.09
2017-07-10T01:27:44.866Z,1006.09
2017-07-10T01:28:25.456Z,1006.08
2017-07-10T01:29:06.062Z,1006.06
2017-07-10T01:29:46.629Z,1006.08
2017-07-10T01:30:27.208Z,1006.05
2017-07-10T01:31:07.782Z,1006.04
2017-07-10T01:31:48.377Z,1006.01
2017-07-10T01:32:28.956Z,1006.02
2017-07-10T01:33:09.589Z,1006
2017-07-10T01:33:50.185Z,1005.99
2017-07-10T01:34:30.861Z,1005.97
2017-07-10T01:35:11.433Z,1005.94
2017-07-10T01:35:52.015Z,1005.91
2017-07-10T01:36:32.661Z,1005.88
2017-07-10T01:37:13.246Z,1005.89
2017-07-10T01:37:53.827Z,1005.89
2017-07-10T01:38:34.440Z,1005.87
2017-07-10T01:39:15.105Z,1005.86
2017-07-10T01:39:55.719Z,1005.8
2017-07-10T01:40:36.343Z,1005.86
2017-07-10T01:41:16.917Z,1005.84
2017-07-10T01:41:57.497Z,1005.82
2017-07-10T01:42:38.124Z,1005.77
2017-07-10T01:43:18.703Z,1005.75
2017-07-10T01:43:59.317Z,1005.73
2017-07-10T01:44:39.910Z,1005.69
2017-07-10T01:45:20.491Z,1005.69
2017-07-10T01:46:01.102Z,1005.65
2017-07-10T01:46:41.739Z,1005.67
2017-07-10T01:47:22.360Z,1005.64
2017-07-10T01:48:02.936Z,1005.63
2017-07-10T01:48:43.533Z,1005.63
2017-07-10T01:49:24.110Z,1005.66
2017-07-10T01:50:04.724Z,1005.62
2017-07-10T01:50:45.318Z,1005.64
2017-07-10T01:51:25.896Z,1005.6
2017-07-10T01:52:06.507Z,1005.65
2017-07-10T01:52:47.065Z,1005.6
2017-07-10T01:53:27.654Z,1005.62
2017-07-10T01:54:08.235Z,1005.66
2017-07-10T01:54:48.818Z,1005.65
2017-07-10T01:55:29.383Z,1005.68
2017-07-10T01:56:09.970Z,1005.67
2017-07-10T01:56:50.570Z,1005.67
2017-07-10T01:57:31.161Z,1005.66
2017-07-10T01:58:11.739Z,1005.63
2017-07-10T01:58:52.380Z,1005.69
2017-07-10T01:59:33.064Z,1005.62
2017-07-10T02:00:13.632Z,1005.6
2017-07-10T02:00:54.221Z,1005.58
2017-07-10T02:01:34.814Z,1005.61
2017-07-10T02:02:15.392Z,1005.55
2017-07-10T02:02:56.156Z,1005.57
2017-07-10T02:03:36.742Z,1005.56
2017-07-10T02:04:17.312Z,1005.57
2017-07-10T02:04:57.924Z,1005.55
2017-07-10T02:05:38.479Z,1005.56
2017-07-10T02:06:19.071Z,1005.55
2017-07-10T02:06:59.665Z,1005.57
2017-07-10T02:07:40.241Z,1005.54
2017-07-10T02:08:20.844Z,1005.57
2017-07-10T02:09:01.412Z,1005.53
2017-07-10T02:09:41.989Z,1005.56
2017-07-10T02:10:22.569Z,1005.53
2017-07-10T02:11:03.164Z,1005.53
2017-07-10T02:11:43.809Z,1005.55
2017-07-10T02:12:24.413Z,1005.55
2017-07-10T02:13:04.987Z,1005.51
2017-07-10T02:13:45.561Z,1005.53
2017-07-10T02:14:26.113Z,1005.53
2017-07-10T02:15:06.705Z,1005.51
2017-07-10T02:15:47.321Z,1005.55
2017-07-10T02:16:28.009Z,1005.59
2017-07-10T02:17:08.583Z,1005.56
2017-07-10T02:17:49.175Z,1005.54
2017-07-10T02:18:29.732Z,1005.56
2017-07-10T02:19:10.311Z,1005.55
2017-07-10T02:19:50.934Z,1005.56
2017-07-10T02:20:31.551Z,1005.54
2017-07-10T02:21:12.189Z,1005.52
2017-07-10T02:21:52.805Z,1005.54
2017-07-10T02:22:33.380Z,1005.49
2017-07-10T02:23:13.973Z,1005.45
2017-07-10T02:23:54.576Z,1005.54
2017-07-10T02:24:35.192Z,1005.53
2017-07-10T02:25:15.831Z,1005.54
2017-07-10T02:25:56.449Z,1005.52
2017-07-10T02:26:37.057Z,1005.49
2017-07-10T02:27:17.652Z,1005.5
2017-07-10T02:27:58.244Z,1005.52
2017-07-10T02:28:38.814Z,1005.52
2017-07-10T02:29:19.389Z,1005.55
2017-07-10T02:30:00.001Z,1005.57
2017-07-10T02:30:40.645Z,1005.57
2017-07-10T02:31:21.278Z,1005.55
2017-07-10T02:32:01.845Z,1005.57
2017-07-10T02:32:42.420Z,1005.58
2017-07-10T02:33:22.991Z,1005.58
2017-07-10T02:34:03.587Z,1005.58
2017-07-10T02:34:44.199Z,1005.6
2017-07-10T02:35:24.795Z,1005.58
2017-07-10T02:36:05.363Z,1005.6
2017-07-10T02:36:45.945Z,1005.57
2017-07-10T02:37:26.522Z,1005.59
2017-07-10T02:38:07.111Z,1005.58
2017-07-10T02:38:47.771Z,1005.58
2017-07-10T02:39:28.355Z,1005.57
2017-07-10T02:40:08.931Z,1005.57
2017-07-10T02:40:49.518Z,1005.59
2017-07-10T02:41:30.078Z,1005.58
2017-07-10T02:42:10.680Z,1005.58
2017-07-10T02:42:51.296Z,1005.54
2017-07-10T02:43:31.891Z,1005.54
2017-07-10T02:44:12.477Z,1005.57
2017-07-10T02:44:53.048Z,1005.54
2017-07-10T02:45:33.671Z,1005.55
2017-07-10T02:46:14.251Z,1005.53
2017-07-10T02:46:54.827Z,1005.54
2017-07-10T02:47:35.445Z,1005.53
2017-07-10T02:48:16.028Z,1005.52
2017-07-10T02:48:56.620Z,1005.53
2017-07-10T02:49:37.208Z,1005.49
2017-07-10T02:50:17.804Z,1005.5
2017-07-10T02:50:58.392Z,1005.5
2017-07-10T02:51:38.924Z,1005.47
2017-07-10T02:52:19.492Z,1005.51
2017-07-10T02:53:00.060Z,1005.5
2017-07-10T02:53:40.677Z,1005.48
2017-07-10T02:54:21.262Z,1005.49
2017-07-10T02:55:01.847Z,1005.45
2017-07-10T02:55:42.420Z,1005.45
2017-07-10T02:56:23.011Z,1005.4
2017-07-10T02:57:03.600Z,1005.43
2017-07-10T02:57:44.182Z,1005.42
2017-07-10T02:58:24.759Z,1005.39
2017-07-10T02:59:05.323Z,1005.44
2017-07-10T02:59:45.916Z,1005.47
2017-07-10T03:00:26.489Z,1005.38
2017-07-10T03:01:07.076Z,1005.43
2017-07-10T03:01:47.663Z,1005.39
2017-07-10T03:02:28.299Z,1005.4
2017-07-10T03:03:08.933Z,1005.36
2017-07-10T03:03:49.516Z,1005.37
2017-07-10T03:04:30.123Z,1005.4
2017-07-10T03:05:10.676Z,1005.39
2017-07-10T03:05:51.328Z,1005.38
2017-07-10T03:06:31.931Z,1005.4
2017-07-10T03:07:12.499Z,1005.37
2017-07-10T03:07:53.083Z,1005.37
2017-07-10T03:08:33.673Z,1005.36
2017-07-10T03:09:14.256Z,1005.38
2017-07-10T03:09:54.823Z,1005.32
2017-07-10T03:10:35.449Z,1005.33
2017-07-10T03:11:16.057Z,1005.36
2017-07-10T03:11:56.641Z,1005.32
2017-07-10T03:12:37.244Z,1005.32
2017-07-10T03:13:17.850Z,1005.31
2017-07-10T03:13:58.416Z,1005.28
2017-07-10T03:14:39.003Z,1005.28
2017-07-10T03:15:19.559Z,1005.25
2017-07-10T03:16:00.137Z,1005.28
2017-07-10T03:16:40.721Z,1005.28
2017-07-10T03:17:21.322Z,1005.24
2017-07-10T03:18:01.895Z,1005.3
2017-07-10T03:18:42.473Z,1005.3
2017-07-10T03:19:23.121Z,1005.28
2017-07-10T03:20:03.660Z,1005.29
2017-07-10T03:20:44.226Z,1005.27
2017-07-10T03:21:24.824Z,1005.27
2017-07-10T03:22:05.377Z,1005.27
2017-07-10T03:22:45.937Z,1005.25
2017-07-10T03:23:26.511Z,1005.21
2017-07-10T03:24:07.107Z,1005.2
2017-07-10T03:24:47.679Z,1005.21
2017-07-10T03:25:28.270Z,1005.15
2017-07-10T03:26:08.837Z,1005.19
2017-07-10T03:26:49.433Z,1005.19
2017-07-10T03:27:30.020Z,1005.19
2017-07-10T03:28:10.586Z,1005.18
2017-07-10T03:28:51.175Z,1005.18
2017-07-10T03:29:31.759Z,1005.18
2017-07-10T03:30:12.330Z,1005.15
2017-07-10T03:30:52.940Z,1005.2
2017-07-10T03:31:33.514Z,1005.17
2017-07-10T03:32:14.079Z,1005.18
2017-07-10T03:32:54.648Z,1005.16
2017-07-10T03:33:35.218Z,1005.15
2017-07-10T03:34:15.807Z,1005.15
2017-07-10T03:34:56.387Z,1005.14
2017-07-10T03:35:36.968Z,1005.12
2017-07-10T03:36:17.539Z,1005.11
2017-07-10T03:36:58.096Z,1005.09
2017-07-10T03:37:38.672Z,1005.1
2017-07-10T03:38:19.237Z,1005.09
2017-07-10T03:38:59.811Z,1005.08
2017-07-10T03:39:40.437Z,1005.1
2017-07-10T03:40:21.016Z,1005.11
2017-07-10T03:41:01.603Z,1005.08
2017-07-10T03:41:42.266Z,1005.1
2017-07-10T03:42:22.867Z,1005.1
2017-07-10T03:43:03.431Z,1005.12
2017-07-10T03:43:44.104Z,1005.12
2017-07-10T03:44:24.661Z,1005.08
2017-07-10T03:45:05.247Z,1005.03
2017-07-10T03:45:45.845Z,1005.1
2017-07-10T03:46:26.413Z,1005.07
2017-07-10T03:47:06.992Z,1005.05
2017-07-10T03:47:47.557Z,1005.13
2017-07-10T03:48:28.126Z,1005.11
2017-07-10T03:49:08.722Z,1005.13
2017-07-10T03:49:49.335Z,1005.12
2017-07-10T03:50:29.909Z,1005.09
2017-07-10T03:51:10.508Z,1005.11
2017-07-10T03:51:51.116Z,1005.14
2017-07-10T03:52:31.678Z,1005.11
2017-07-10T03:53:12.277Z,1005.13
2017-07-10T03:53:52.881Z,1005.16
2017-07-10T03:54:33.482Z,1005.17
2017-07-10T03:55:14.013Z,1005.15
2017-07-10T03:55:54.602Z,1005.16
2017-07-10T03:56:35.178Z,1005.14
2017-07-10T03:57:15.758Z,1005.15
2017-07-10T03:57:56.392Z,1005.15
2017-07-10T03:58:36.962Z,1005.14
2017-07-10T03:59:17.528Z,1005.18
2017-07-10T03:59:58.164Z,1005.17
2017-07-10T04:00:38.798Z,1005.1
2017-07-10T04:01:19.374Z,1005.09
2017-07-10T04:01:59.955Z,1005.11
2017-07-10T04:02:40.524Z,1005.14
2017-07-10T04:03:21.101Z,1005.07
2017-07-10T04:04:01.682Z,1005.03
2017-07-10T04:04:42.298Z,1005.05
2017-07-10T04:05:22.911Z,1005.01
2017-07-10T04:06:03.509Z,1005.02
2017-07-10T04:06:44.087Z,1004.98
2017-07-10T04:07:24.669Z,1005.01
2017-07-10T04:08:05.261Z,1004.96
2017-07-10T04:08:45.810Z,1004.96
2017-07-10T04:09:26.409Z,1004.95
2017-07-10T04:10:06.982Z,1004.92
2017-07-10T04:10:47.578Z,1004.93
2017-07-10T04:11:28.274Z,1004.92
2017-07-10T04:12:08.871Z,1004.91
2017-07-10T04:12:49.490Z,1004.88
2017-07-10T04:13:30.068Z,1004.85
2017-07-10T04:14:10.677Z,1004.89
2017-07-10T04:14:51.291Z,1004.87
2017-07-10T04:15:32.146Z,1004.86
2017-07-10T04:16:12.713Z,1004.86
2017-07-10T04:16:53.275Z,1004.86
2017-07-10T04:17:33.851Z,1004.91
2017-07-10T04:18:14.440Z,1004.93
2017-07-10T04:18:55.031Z,1004.91
2017-07-10T04:19:35.648Z,1004.9
2017-07-10T04:20:16.260Z,1004.88
2017-07-10T04:20:56.853Z,1004.85
2017-07-10T04:21:37.430Z,1004.83
2017-07-10T04:22:18.007Z,1004.82
2017-07-10T04:22:58.570Z,1004.82
2017-07-10T04:23:39.158Z,1004.8
2017-07-10T04:24:19.727Z,1004.82
2017-07-10T04:25:00.306Z,1004.76
2017-07-10T04:25:40.871Z,1004.77
2017-07-10T04:26:21.452Z,1004.76
2017-07-10T04:27:02.042Z,1004.79
2017-07-10T04:27:42.627Z,1004.75
2017-07-10T04:28:23.207Z,1004.72
2017-07-10T04:29:03.788Z,1004.75
2017-07-10T04:29:44.365Z,1004.79
2017-07-10T04:30:24.931Z,1004.74
2017-07-10T04:31:05.504Z,1004.77
2017-07-10T04:31:46.070Z,1004.73
2017-07-10T04:32:26.672Z,1004.72
2017-07-10T04:33:07.270Z,1004.74
2017-07-10T04:33:48.013Z,1004.69
2017-07-10T04:34:28.558Z,1004.7
2017-07-10T04:35:09.123Z,1004.66
2017-07-10T04:35:49.753Z,1004.68
2017-07-10T04:36:30.632Z,1004.64
2017-07-10T04:37:11.191Z,1004.68
2017-07-10T04:37:52.216Z,1004.64
2017-07-10T04:38:32.819Z,1004.65
2017-07-10T04:39:13.385Z,1004.62
2017-07-10T04:39:53.962Z,1004.62
2017-07-10T04:40:34.533Z,1004.58
2017-07-10T04:41:15.146Z,1004.56
2017-07-10T04:41:55.723Z,1004.59
2017-07-10T04:42:36.318Z,1004.6
2017-07-10T04:43:16.895Z,1004.56
2017-07-10T04:43:57.497Z,1004.56
2017-07-10T04:44:38.102Z,1004.55
2017-07-10T04:45:18.684Z,1004.51
2017-07-10T04:45:59.393Z,1004.52
2017-07-10T04:46:39.957Z,1004.53
2017-07-10T04:47:20.528Z,1004.52
2017-07-10T04:48:01.120Z,1004.53
2017-07-10T04:48:41.709Z,1004.52
2017-07-10T04:49:22.278Z,1004.48
2017-07-10T04:50:03.117Z,1004.5
2017-07-10T04:50:43.736Z,1004.52
2017-07-10T04:51:24.307Z,1004.5
2017-07-10T04:52:04.865Z,1004.53
2017-07-10T04:52:45.638Z,1004.49
2017-07-10T04:53:26.227Z,1004.54
2017-07-10T04:54:06.797Z,1004.5
2017-07-10T04:54:47.399Z,1004.46
2017-07-10T04:55:27.993Z,1004.49
2017-07-10T04:56:08.562Z,1004.49
2017-07-10T04:56:49.149Z,1004.49
2017-07-10T04:57:29.771Z,1004.47
2017-07-10T04:58:10.363Z,1004.43
2017-07-10T04:58:50.983Z,1004.46
2017-07-10T04:59:31.574Z,1004.42
2017-07-10T05:00:12.166Z,1004.42
2017-07-10T05:00:52.753Z,1004.42
2017-07-10T05:01:33.354Z,1004.39
2017-07-10T05:02:13.914Z,1004.4
2017-07-10T05:02:54.519Z,1004.39
2017-07-10T05:03:35.284Z,1004.36
2017-07-10T05:04:15.869Z,1004.32
2017-07-10T05:04:56.485Z,1004.36
2017-07-10T05:05:37.074Z,1004.38
2017-07-10T05:06:17.661Z,1004.37
2017-07-10T05:06:58.264Z,1004.32
2017-07-10T05:07:38.839Z,1004.35
2017-07-10T05:08:19.417Z,1004.4
2017-07-10T05:08:59.990Z,1004.36
2017-07-10T05:09:40.605Z,1004.39
2017-07-10T05:10:21.186Z,1004.36
2017-07-10T05:11:01.788Z,1004.37
2017-07-10T05:11:42.358Z,1004.34
2017-07-10T05:12:22.943Z,1004.36
2017-07-10T05:13:03.529Z,1004.37
2017-07-10T05:13:44.119Z,1004.33
2017-07-10T05:14:24.697Z,1004.3
2017-07-10T05:15:05.281Z,1004.31
2017-07-10T05:15:45.882Z,1004.31
2017-07-10T05:16:26.501Z,1004.27
2017-07-10T05:17:07.073Z,1004.29
2017-07-10T05:17:47.723Z,1004.3
2017-07-10T05:18:28.313Z,1004.3
2017-07-10T05:19:08.901Z,1004.32
2017-07-10T05:19:49.484Z,1004.31
2017-07-10T05:20:30.069Z,1004.28
2017-07-10T05:21:10.661Z,1004.26
2017-07-10T05:21:51.241Z,1004.26
2017-07-10T05:22:31.850Z,1004.25
2017-07-10T05:23:12.445Z,1004.23
2017-07-10T05:23:53.073Z,1004.24
2017-07-10T05:24:33.664Z,1004.24
2017-07-10T05:25:14.260Z,1004.21
2017-07-10T05:25:54.854Z,1004.21
2017-07-10T05:26:35.465Z,1004.2
2017-07-10T05:27:16.045Z,1004.23
2017-07-10T05:27:56.617Z,1004.19
2017-07-10T05:28:37.258Z,1004.17
2017-07-10T05:29:17.848Z,1004.18
2017-07-10T05:29:58.411Z,1004.2
2017-07-10T05:30:39.039Z,1004.16
2017-07-10T05:31:19.707Z,1004.16
2017-07-10T05:32:00.288Z,1004.12
2017-07-10T05:32:40.864Z,1004.09
2017-07-10T05:33:21.480Z,1004.09
2017-07-10T05:34:02.061Z,1004.09
2017-07-10T05:34:42.651Z,1004.03
2017-07-10T05:35:23.232Z,1004.02
2017-07-10T05:36:03.821Z,1004.03
2017-07-10T05:36:44.431Z,1004.02
2017-07-10T05:37:25.017Z,1004
2017-07-10T05:38:05.589Z,1004.05
2017-07-10T05:38:46.179Z,1004.07
2017-07-10T05:39:26.751Z,1004.08
2017-07-10T05:40:07.333Z,1004.12
2017-07-10T05:40:47.912Z,1004.18
2017-07-10T05:41:28.482Z,1004.17
2017-07-10T05:42:09.050Z,1004.24
2017-07-10T05:42:49.627Z,1004.27
2017-07-10T05:43:30.207Z,1004.26
2017-07-10T05:44:10.776Z,1004.33
2017-07-10T05:44:51.347Z,1004.31
2017-07-10T05:45:31.968Z,1004.36
2017-07-10T05:46:12.549Z,1004.31
2017-07-10T05:46:53.251Z,1004.26
2017-07-10T05:47:34.010Z,1004.3
2017-07-10T05:48:14.820Z,1004.34
2017-07-10T05:48:55.688Z,1004.35
2017-07-10T05:49:36.547Z,1004.34
2017-07-10T05:50:17.514Z,1004.38
2017-07-10T05:50:58.209Z,1004.39
2017-07-10T05:51:38.936Z,1004.42
2017-07-10T05:52:20.064Z,1004.51
2017-07-10T05:53:00.881Z,1004.58
2017-07-10T05:53:41.669Z,1004.62
2017-07-10T05:54:22.803Z,1004.64
2017-07-10T05:55:03.603Z,1004.54
2017-07-10T05:55:44.216Z,1004.57
2017-07-10T05:56:25.185Z,1004.49
2017-07-10T05:57:09.893Z,1004.43
2017-07-10T05:57:51.886Z,1004.42
2017-07-10T05:58:34.270Z,1004.33
2017-07-10T05:59:18.540Z,1004.23
2017-07-10T05:59:59.684Z,1004.21
2017-07-10T06:00:41.915Z,1004.11
2017-07-10T06:01:22.553Z,1004.11
2017-07-10T06:02:03.192Z,1004.06
2017-07-10T06:02:43.771Z,1004.01
2017-07-10T06:03:24.337Z,1003.97
2017-07-10T06:04:04.978Z,1004
2017-07-10T06:04:45.574Z,1003.96
2017-07-10T06:05:26.145Z,1003.91
2017-07-10T06:06:06.711Z,1003.94
2017-07-10T06:06:47.289Z,1003.94
2017-07-10T06:07:27.862Z,1003.94
2017-07-10T06:08:08.444Z,1003.95
2017-07-10T06:08:49.013Z,1003.98
2017-07-10T06:09:29.597Z,1003.99
2017-07-10T06:10:10.192Z,1004.01
2017-07-10T06:10:50.818Z,1004.03
2017-07-10T06:11:31.392Z,1004.11
2017-07-10T06:12:11.979Z,1004.06
2017-07-10T06:12:52.564Z,1004.04
2017-07-10T06:13:33.179Z,1004.02
2017-07-10T06:14:13.761Z,1004.01
2017-07-10T06:14:54.370Z,1003.97
2017-07-10T06:15:34.951Z,1003.99
2017-07-10T06:16:15.537Z,1003.99
2017-07-10T06:16:56.109Z,1003.96
2017-07-10T06:17:36.688Z,1003.95
2017-07-10T06:18:17.274Z,1003.97
2017-07-10T06:18:57.850Z,1003.98
2017-07-10T06:19:38.415Z,1004.07
2017-07-10T06:20:19.029Z,1004.04
2017-07-10T06:20:59.588Z,1004.03
2017-07-10T06:21:40.171Z,1004.02
2017-07-10T06:22:20.738Z,1003.98
2017-07-10T06:23:01.443Z,1003.98
2017-07-10T06:23:42.007Z,1004.06
2017-07-10T06:24:22.586Z,1004.19
2017-07-10T06:25:03.169Z,1004.28
2017-07-10T06:25:43.781Z,1004.21
2017-07-10T06:26:24.317Z,1004.28
2017-07-10T06:27:04.882Z,1004.36
2017-07-10T06:27:45.447Z,1004.32
2017-07-10T06:28:26.024Z,1004.27
2017-07-10T06:29:06.592Z,1004.3
2017-07-10T06:29:47.166Z,1004.32
2017-07-10T06:30:27.743Z,1004.26
2017-07-10T06:31:08.337Z,1004.27
2017-07-10T06:31:48.901Z,1004.33
2017-07-10T06:32:29.494Z,1004.43
2017-07-10T06:33:10.078Z,1004.33
2017-07-10T06:33:50.659Z,1004.33
2017-07-10T06:34:31.251Z,1004.29
2017-07-10T06:35:11.826Z,1004.08
2017-07-10T06:35:52.419Z,1004.06
2017-07-10T06:36:33.129Z,1004.03
2017-07-10T06:37:13.702Z,1004.12
2017-07-10T06:37:54.327Z,1004.18
2017-07-10T06:38:34.910Z,1004.38
2017-07-10T06:39:15.493Z,1004.37
2017-07-10T06:39:56.071Z,1004.28
2017-07-10T06:40:36.649Z,1004.46
2017-07-10T06:41:17.218Z,1004.58
2017-07-10T06:41:57.816Z,1004.53
2017-07-10T06:42:38.390Z,1004.4
2017-07-10T06:43:18.966Z,1004.35
2017-07-10T06:43:59.537Z,1004.35
2017-07-10T06:44:40.128Z,1004.25
2017-07-10T06:45:20.722Z,1004.24
2017-07-10T06:46:01.303Z,1004.13
2017-07-10T06:46:41.875Z,1004.09
2017-07-10T06:47:22.486Z,1004.04
2017-07-10T06:48:03.059Z,1004.04
2017-07-10T06:48:43.639Z,1003.99
2017-07-10T06:49:24.205Z,1004
2017-07-10T06:50:04.767Z,1003.93
2017-07-10T06:50:45.345Z,1003.92
2017-07-10T06:51:25.922Z,1003.92
2017-07-10T06:52:06.528Z,1003.89
2017-07-10T06:52:47.131Z,1003.9
2017-07-10T06:53:27.700Z,1003.86
2017-07-10T06:54:08.300Z,1003.88
2017-07-10T06:54:48.874Z,1003.82
2017-07-10T06:55:29.448Z,1003.82
2017-07-10T06:56:10.029Z,1003.81
2017-07-10T06:56:50.624Z,1003.81
2017-07-10T06:57:31.201Z,1003.81
2017-07-10T06:58:11.793Z,1003.81
2017-07-10T06:58:52.376Z,1003.81
2017-07-10T06:59:33.030Z,1003.81
2017-07-10T07:00:13.608Z,1003.79
2017-07-10T07:00:54.200Z,1003.81
2017-07-10T07:01:34.785Z,1003.81
2017-07-10T07:02:15.370Z,1003.74
2017-07-10T07:02:56.053Z,1003.74
2017-07-10T07:03:36.615Z,1003.72
2017-07-10T07:04:17.187Z,1003.66
2017-07-10T07:04:57.757Z,1003.64
2017-07-10T07:05:38.360Z,1003.64
2017-07-10T07:06:18.962Z,1003.65
2017-07-10T07:06:59.526Z,1003.67
2017-07-10T07:07:40.104Z,1003.62
2017-07-10T07:08:20.701Z,1003.63
2017-07-10T07:09:01.265Z,1003.58
2017-07-10T07:09:42.151Z,1003.56
2017-07-10T07:10:22.730Z,1003.53
2017-07-10T07:11:03.311Z,1003.53
2017-07-10T07:11:44.051Z,1003.53
2017-07-10T07:12:24.621Z,1003.48
2017-07-10T07:13:05.241Z,1003.5
2017-07-10T07:13:45.813Z,1003.47
2017-07-10T07:14:26.388Z,1003.49
2017-07-10T07:15:06.979Z,1003.47
2017-07-10T07:15:47.585Z,1003.47
2017-07-10T07:16:28.153Z,1003.43
2017-07-10T07:17:08.761Z,1003.48
2017-07-10T07:17:49.364Z,1003.44
2017-07-10T07:18:29.947Z,1003.48
2017-07-10T07:19:10.503Z,1003.47
2017-07-10T07:19:51.074Z,1003.44
2017-07-10T07:20:31.645Z,1003.44
2017-07-10T07:21:12.236Z,1003.45
2017-07-10T07:21:52.808Z,1003.42
2017-07-10T07:22:33.392Z,1003.44
2017-07-10T07:23:13.974Z,1003.42
2017-07-10T07:23:54.554Z,1003.41
2017-07-10T07:24:35.128Z,1003.39
2017-07-10T07:25:15.698Z,1003.41
2017-07-10T07:25:56.296Z,1003.37
2017-07-10T07:26:36.891Z,1003.36
2017-07-10T07:27:17.459Z,1003.34
2017-07-10T07:27:58.049Z,1003.38
2017-07-10T07:28:38.615Z,1003.33
2017-07-10T07:29:19.195Z,1003.32
2017-07-10T07:29:59.764Z,1003.31
2017-07-10T07:30:40.334Z,1003.35
2017-07-10T07:31:20.908Z,1003.3
2017-07-10T07:32:01.473Z,1003.28
2017-07-10T07:32:42.058Z,1003.26
2017-07-10T07:33:22.634Z,1003.28
2017-07-10T07:34:03.226Z,1003.3
2017-07-10T07:34:43.814Z,1003.26
2017-07-10T07:35:24.396Z,1003.24
2017-07-10T07:36:05.002Z,1003.28
2017-07-10T07:36:45.573Z,1003.26
2017-07-10T07:37:26.150Z,1003.26
2017-07-10T07:38:06.717Z,1003.27
2017-07-10T07:38:47.291Z,1003.26
2017-07-10T07:39:27.864Z,1003.29
2017-07-10T07:40:08.451Z,1003.27
2017-07-10T07:40:49.032Z,1003.29
2017-07-10T07:41:29.599Z,1003.27
2017-07-10T07:42:10.171Z,1003.33
2017-07-10T07:42:50.725Z,1003.31
2017-07-10T07:43:31.326Z,1003.32
2017-07-10T07:44:11.895Z,1003.37
2017-07-10T07:44:52.472Z,1003.31
2017-07-10T07:45:33.060Z,1003.32
2017-07-10T07:46:13.626Z,1003.35
2017-07-10T07:46:54.228Z,1003.37
2017-07-10T07:47:34.792Z,1003.38
2017-07-10T07:48:15.371Z,1003.4
2017-07-10T07:48:55.962Z,1003.38
2017-07-10T07:49:36.543Z,1003.35
2017-07-10T07:50:17.117Z,1003.32
2017-07-10T07:50:57.716Z,1003.37
2017-07-10T07:51:38.285Z,1003.28
2017-07-10T07:52:18.869Z,1003.32
2017-07-10T07:52:59.447Z,1003.28
2017-07-10T07:53:40.017Z,1003.31
2017-07-10T07:54:20.591Z,1003.26
2017-07-10T07:55:01.159Z,1003.25
2017-07-10T07:55:41.734Z,1003.26
2017-07-10T07:56:22.295Z,1003.22
2017-07-10T07:57:02.929Z,1003.23
2017-07-10T07:57:43.501Z,1003.21
2017-07-10T07:58:24.091Z,1003.24
2017-07-10T07:59:04.659Z,1003.23
2017-07-10T07:59:45.243Z,1003.21
2017-07-10T08:00:25.806Z,1003.23
2017-07-10T08:01:06.384Z,1003.22
2017-07-10T08:01:46.959Z,1003.21
2017-07-10T08:02:27.523Z,1003.23
2017-07-10T08:03:08.092Z,1003.26
2017-07-10T08:03:48.670Z,1003.34
2017-07-10T08:04:29.242Z,1003.3
2017-07-10T08:05:09.817Z,1003.31
2017-07-10T08:05:50.384Z,1003.34
2017-07-10T08:06:30.966Z,1003.43
2017-07-10T08:07:11.559Z,1003.41
2017-07-10T08:07:52.171Z,1003.44
2017-07-10T08:08:32.729Z,1003.48
2017-07-10T08:09:13.318Z,1003.48
2017-07-10T08:09:53.922Z,1003.48
2017-07-10T08:10:34.492Z,1003.52
2017-07-10T08:11:15.087Z,1003.55
2017-07-10T08:11:55.742Z,1003.57
2017-07-10T08:12:36.310Z,1003.64
2017-07-10T08:13:16.890Z,1003.61